Koyo — JD2279 — position and weather

sailwx.info

Track history (hours):
 
Tides and Currents Weather Stations Pressure Air Temp Water Temp Dewpoint Dewpoint Depression Visibility Wind Speed Wind Dir Waves Ship Positions

Koyo

Last reported at 2017-Jan-16 06:33 UTC. Time now 2017-Jan-17 04:49 UTC.
Position N 34°36' E 134°53'.

Length 80 m; draft 3.7 m.

Type: Cargo ship. MMSI: 431301812.

Date/timePositionNaut miles runAvg speedWind from/ knotsBaromVisibWave heightAir tempDewpointWater temp
2017-Jan-16 06:33N 34°36' E 134°53'1110.7
2017-Jan-16 05:33N 34°36' E 135°06'1312.9
2017-Jan-16 04:33N 34°39' E 135°22'3 2.8
2017-Jan-16 03:33N 34°38' E 135°25'0 0.3
2017-Jan-16 02:33N 34°37' E 135°25'9 8.7
2017-Jan-16 01:33N 34°39' E 135°15'0 0.0
2017-Jan-16 00:33N 34°39' E 135°15'0 0.0
2017-Jan-15 23:21N 34°39' E 135°15'2 2.7
2017-Jan-15 22:33N 34°41' E 135°13'0 0.3
2017-Jan-15 21:33N 34°41' E 135°13'0 0.0
2017-Jan-15 20:33N 34°41' E 135°13'0 0.0
2017-Jan-15 19:33N 34°41' E 135°13'0 0.0
2017-Jan-15 18:33N 34°41' E 135°13'0 0.0
2017-Jan-15 17:33N 34°41' E 135°13'0 0.0
2017-Jan-15 16:33N 34°41' E 135°13'0 0.0
2017-Jan-15 15:33N 34°41' E 135°13'0 0.0
2017-Jan-15 14:33N 34°41' E 135°13'0 0.0
2017-Jan-15 13:33N 34°41' E 135°13'0 0.0
2017-Jan-15 12:33N 34°41' E 135°13'0 0.0
2017-Jan-15 11:33N 34°41' E 135°13'0 0.0
2017-Jan-15 10:33N 34°41' E 135°13'0 0.0
2017-Jan-15 09:33N 34°41' E 135°13'0 0.0
2017-Jan-15 08:33N 34°41' E 135°13'5 4.9
2017-Jan-15 07:33N 34°36' E 135°11'1413.7
2017-Jan-15 06:33N 34°35' E 134°54'6 0.1
2017-Jan-13 12:09N 34°34' E 134°47'914.0
2017-Jan-13 11:32N 34°37' E 134°57'1212.7
2017-Jan-13 10:33N 34°37' E 135°12'3 2.5
2017-Jan-13 09:28N 34°39' E 135°15'0 0.0
2017-Jan-13 08:28N 34°39' E 135°15'0 0.0
2017-Jan-13 07:22N 34°39' E 135°15'0 0.5
2017-Jan-13 06:33N 34°39' E 135°15'1 0.9
2017-Jan-13 05:19N 34°40' E 135°14'0 0.0
2017-Jan-13 04:31N 34°40' E 135°14'0 0.0
2017-Jan-13 03:25N 34°40' E 135°14'0 0.0
2017-Jan-13 02:31N 34°40' E 135°14'0 0.0
2017-Jan-13 01:31N 34°40' E 135°14'0 0.0
2017-Jan-13 00:31N 34°40' E 135°14'0 0.0
2017-Jan-12 23:31N 34°40' E 135°14'1 1.4
2017-Jan-12 22:30N 34°39' E 135°15'0 0.0
2017-Jan-12 21:34N 34°39' E 135°15'0 0.0
2017-Jan-12 20:34N 34°39' E 135°15'2 1.6
2017-Jan-12 19:34N 34°37' E 135°14'1312.9
2017-Jan-12 18:33N 34°37' E 134°58'1 0.0
2017-Jan-11 05:32N 34°37' E 134°57'8 8.1
2017-Jan-11 04:33N 34°36' E 135°07'1111.2
2017-Jan-11 03:33N 34°38' E 135°20'4 3.6
2017-Jan-11 02:28N 34°38' E 135°25'2 2.5
2017-Jan-11 01:33N 34°37' E 135°22'7 6.0
2017-Jan-11 00:24N 34°40' E 135°14'0 0.0
2017-Jan-10 23:30N 34°40' E 135°14'1 1.0
2017-Jan-10 22:30N 34°39' E 135°15'0 0.0
2017-Jan-10 21:30N 34°39' E 135°15'0 0.0
2017-Jan-10 20:30N 34°39' E 135°15'0 0.0
2017-Jan-10 19:24N 34°39' E 135°15'0 0.0
2017-Jan-10 18:30N 34°39' E 135°15'0 0.0
2017-Jan-10 17:12N 34°39' E 135°15'0 0.0
2017-Jan-10 16:33N 34°39' E 135°15'1010.0
2017-Jan-10 15:34N 34°36' E 135°03'10 0.3
2017-Jan-09 05:28N 34°35' E 134°52'1010.4
2017-Jan-09 04:33N 34°36' E 135°03'10 9.9
2017-Jan-09 03:33N 34°39' E 135°15'0 0.2
2017-Jan-09 02:33N 34°39' E 135°15'0 0.0
2017-Jan-09 01:33N 34°39' E 135°15'0 0.2
2017-Jan-09 00:33N 34°39' E 135°15'3 2.6
2017-Jan-08 23:33N 34°41' E 135°13'0 0.0
2017-Jan-08 22:33N 34°41' E 135°13'0 0.0
2017-Jan-08 21:33N 34°41' E 135°13'0 0.0
2017-Jan-08 20:09N 34°41' E 135°13'0 0.0
2017-Jan-08 19:33N 34°41' E 135°13'0 0.0
2017-Jan-08 18:33N 34°41' E 135°13'0 0.0
2017-Jan-08 17:33N 34°41' E 135°13'0 0.0
2017-Jan-08 16:33N 34°41' E 135°13'0 0.0
2017-Jan-08 15:33N 34°41' E 135°13'0 0.0
2017-Jan-08 14:15N 34°41' E 135°13'0 0.0
2017-Jan-08 13:33N 34°41' E 135°13'0 0.0
2017-Jan-08 12:33N 34°41' E 135°13'0 0.0
2017-Jan-08 11:27N 34°41' E 135°13'0 0.0
2017-Jan-08 10:21N 34°41' E 135°13'0 0.0
2017-Jan-08 09:33N 34°41' E 135°13'0 0.0
2017-Jan-08 08:33N 34°41' E 135°13'0 0.0
2017-Jan-08 07:33N 34°41' E 135°13'0 0.0
2017-Jan-08 06:27N 34°41' E 135°13'0 0.0
2017-Jan-08 05:33N 34°41' E 135°13'0 0.0
2017-Jan-08 04:33N 34°41' E 135°13'0 0.0
2017-Jan-08 03:33N 34°41' E 135°13'0 0.0
2017-Jan-08 02:21N 34°41' E 135°13'0 0.0
2017-Jan-08 01:33N 34°41' E 135°13'0 0.0
2017-Jan-08 00:33N 34°41' E 135°13'0 0.0
2017-Jan-07 23:33N 34°41' E 135°13'0 0.0
2017-Jan-07 22:33N 34°41' E 135°13'0 0.0
2017-Jan-07 21:15N 34°41' E 135°13'0 0.0
2017-Jan-07 20:33N 34°41' E 135°13'0 0.0
2017-Jan-07 19:33N 34°41' E 135°13'0 0.0
2017-Jan-07 18:33N 34°41' E 135°13'0 0.0
2017-Jan-07 17:33N 34°41' E 135°13'0 0.0
2017-Jan-07 16:33N 34°41' E 135°13'0 0.0
2017-Jan-07 15:33N 34°41' E 135°13'1 0.5
2017-Jan-07 14:33N 34°41' E 135°13'9 9.0
2017-Jan-07 13:33N 34°35' E 135°06'37 1.8
2017-Jan-06 17:18N 34°04' E 134°42'1013.0
2017-Jan-06 16:30N 34°10' E 134°52'1211.9
2017-Jan-06 15:32N 34°20' E 134°59'1313.2
2017-Jan-06 14:33N 34°30' E 135°08'11 9.9
2017-Jan-06 13:29N 34°39' E 135°14'0 0.0
2017-Jan-06 12:29N 34°39' E 135°14'0 0.0
2017-Jan-06 11:29N 34°39' E 135°14'5 5.6
2017-Jan-06 10:33N 34°34' E 135°14'1212.2
2017-Jan-06 09:32N 34°24' E 135°06'10 9.7
2017-Jan-06 08:33N 34°15' E 135°02'6 5.5
2017-Jan-06 07:29N 34°12' E 135°09'  
Track history (hours):
 
Tides and Currents Weather Stations Pressure Air Temp Water Temp Dewpoint Dewpoint Depression Visibility Wind Speed Wind Dir Waves Ship Positions

Koyo

Last reported at 2017-Jan-16 06:33 UTC. Time now 2017-Jan-17 04:49 UTC.
Position N 34°36' E 134°53'.

Length 80 m; draft 3.7 m.

Type: Cargo ship. MMSI: 431301812.

Date/timePositionNaut miles runAvg speedWind from/ knotsBaromVisibWave heightAir tempDewpointWater temp
2017-Jan-16 06:33N 34°36' E 134°53'1110.7
2017-Jan-16 05:33N 34°36' E 135°06'1312.9
2017-Jan-16 04:33N 34°39' E 135°22'3 2.8
2017-Jan-16 03:33N 34°38' E 135°25'0 0.3
2017-Jan-16 02:33N 34°37' E 135°25'9 8.7
2017-Jan-16 01:33N 34°39' E 135°15'0 0.0
2017-Jan-16 00:33N 34°39' E 135°15'0 0.0
2017-Jan-15 23:21N 34°39' E 135°15'2 2.7
2017-Jan-15 22:33N 34°41' E 135°13'0 0.3
2017-Jan-15 21:33N 34°41' E 135°13'0 0.0
2017-Jan-15 20:33N 34°41' E 135°13'0 0.0
2017-Jan-15 19:33N 34°41' E 135°13'0 0.0
2017-Jan-15 18:33N 34°41' E 135°13'0 0.0
2017-Jan-15 17:33N 34°41' E 135°13'0 0.0
2017-Jan-15 16:33N 34°41' E 135°13'0 0.0
2017-Jan-15 15:33N 34°41' E 135°13'0 0.0
2017-Jan-15 14:33N 34°41' E 135°13'0 0.0
2017-Jan-15 13:33N 34°41' E 135°13'0 0.0
2017-Jan-15 12:33N 34°41' E 135°13'0 0.0
2017-Jan-15 11:33N 34°41' E 135°13'0 0.0
2017-Jan-15 10:33N 34°41' E 135°13'0 0.0
2017-Jan-15 09:33N 34°41' E 135°13'0 0.0
2017-Jan-15 08:33N 34°41' E 135°13'5 4.9
2017-Jan-15 07:33N 34°36' E 135°11'1413.7
2017-Jan-15 06:33N 34°35' E 134°54'6 0.1
2017-Jan-13 12:09N 34°34' E 134°47'914.0
2017-Jan-13 11:32N 34°37' E 134°57'1212.7
2017-Jan-13 10:33N 34°37' E 135°12'3 2.5
2017-Jan-13 09:28N 34°39' E 135°15'0 0.0
2017-Jan-13 08:28N 34°39' E 135°15'0 0.0
2017-Jan-13 07:22N 34°39' E 135°15'0 0.5
2017-Jan-13 06:33N 34°39' E 135°15'1 0.9
2017-Jan-13 05:19N 34°40' E 135°14'0 0.0
2017-Jan-13 04:31N 34°40' E 135°14'0 0.0
2017-Jan-13 03:25N 34°40' E 135°14'0 0.0
2017-Jan-13 02:31N 34°40' E 135°14'0 0.0
2017-Jan-13 01:31N 34°40' E 135°14'0 0.0
2017-Jan-13 00:31N 34°40' E 135°14'0 0.0
2017-Jan-12 23:31N 34°40' E 135°14'1 1.4
2017-Jan-12 22:30N 34°39' E 135°15'0 0.0
2017-Jan-12 21:34N 34°39' E 135°15'0 0.0
2017-Jan-12 20:34N 34°39' E 135°15'2 1.6
2017-Jan-12 19:34N 34°37' E 135°14'1312.9
2017-Jan-12 18:33N 34°37' E 134°58'1 0.0
2017-Jan-11 05:32N 34°37' E 134°57'8 8.1
2017-Jan-11 04:33N 34°36' E 135°07'1111.2
2017-Jan-11 03:33N 34°38' E 135°20'4 3.6
2017-Jan-11 02:28N 34°38' E 135°25'2 2.5
2017-Jan-11 01:33N 34°37' E 135°22'7 6.0
2017-Jan-11 00:24N 34°40' E 135°14'0 0.0
2017-Jan-10 23:30N 34°40' E 135°14'1 1.0
2017-Jan-10 22:30N 34°39' E 135°15'0 0.0
2017-Jan-10 21:30N 34°39' E 135°15'0 0.0
2017-Jan-10 20:30N 34°39' E 135°15'0 0.0
2017-Jan-10 19:24N 34°39' E 135°15'0 0.0
2017-Jan-10 18:30N 34°39' E 135°15'0 0.0
2017-Jan-10 17:12N 34°39' E 135°15'0 0.0
2017-Jan-10 16:33N 34°39' E 135°15'1010.0
2017-Jan-10 15:34N 34°36' E 135°03'10 0.3
2017-Jan-09 05:28N 34°35' E 134°52'1010.4
2017-Jan-09 04:33N 34°36' E 135°03'10 9.9
2017-Jan-09 03:33N 34°39' E 135°15'0 0.2
2017-Jan-09 02:33N 34°39' E 135°15'0 0.0
2017-Jan-09 01:33N 34°39' E 135°15'0 0.2
2017-Jan-09 00:33N 34°39' E 135°15'3 2.6
2017-Jan-08 23:33N 34°41' E 135°13'0 0.0
2017-Jan-08 22:33N 34°41' E 135°13'0 0.0
2017-Jan-08 21:33N 34°41' E 135°13'0 0.0
2017-Jan-08 20:09N 34°41' E 135°13'0 0.0
2017-Jan-08 19:33N 34°41' E 135°13'0 0.0
2017-Jan-08 18:33N 34°41' E 135°13'0 0.0
2017-Jan-08 17:33N 34°41' E 135°13'0 0.0
2017-Jan-08 16:33N 34°41' E 135°13'0 0.0
2017-Jan-08 15:33N 34°41' E 135°13'0 0.0
2017-Jan-08 14:15N 34°41' E 135°13'0 0.0
2017-Jan-08 13:33N 34°41' E 135°13'0 0.0
2017-Jan-08 12:33N 34°41' E 135°13'0 0.0
2017-Jan-08 11:27N 34°41' E 135°13'0 0.0
2017-Jan-08 10:21N 34°41' E 135°13'0 0.0
2017-Jan-08 09:33N 34°41' E 135°13'0 0.0
2017-Jan-08 08:33N 34°41' E 135°13'0 0.0
2017-Jan-08 07:33N 34°41' E 135°13'0 0.0
2017-Jan-08 06:27N 34°41' E 135°13'0 0.0
2017-Jan-08 05:33N 34°41' E 135°13'0 0.0
2017-Jan-08 04:33N 34°41' E 135°13'0 0.0
2017-Jan-08 03:33N 34°41' E 135°13'0 0.0
2017-Jan-08 02:21N 34°41' E 135°13'0 0.0
2017-Jan-08 01:33N 34°41' E 135°13'0 0.0
2017-Jan-08 00:33N 34°41' E 135°13'0 0.0
2017-Jan-07 23:33N 34°41' E 135°13'0 0.0
2017-Jan-07 22:33N 34°41' E 135°13'0 0.0
2017-Jan-07 21:15N 34°41' E 135°13'0 0.0
2017-Jan-07 20:33N 34°41' E 135°13'0 0.0
2017-Jan-07 19:33N 34°41' E 135°13'0 0.0
2017-Jan-07 18:33N 34°41' E 135°13'0 0.0
2017-Jan-07 17:33N 34°41' E 135°13'0 0.0
2017-Jan-07 16:33N 34°41' E 135°13'0 0.0
2017-Jan-07 15:33N 34°41' E 135°13'1 0.5
2017-Jan-07 14:33N 34°41' E 135°13'9 9.0
2017-Jan-07 13:33N 34°35' E 135°06'37 1.8
2017-Jan-06 17:18N 34°04' E 134°42'1013.0
2017-Jan-06 16:30N 34°10' E 134°52'1211.9
2017-Jan-06 15:32N 34°20' E 134°59'1313.2
2017-Jan-06 14:33N 34°30' E 135°08'11 9.9
2017-Jan-06 13:29N 34°39' E 135°14'0 0.0
2017-Jan-06 12:29N 34°39' E 135°14'0 0.0
2017-Jan-06 11:29N 34°39' E 135°14'5 5.6
2017-Jan-06 10:33N 34°34' E 135°14'1212.2
2017-Jan-06 09:32N 34°24' E 135°06'10 9.7
2017-Jan-06 08:33N 34°15' E 135°02'6 5.5
2017-Jan-06 07:29N 34°12' E 135°09'  

Dump ship's entire track history